Time;durP1;ratioP1;P1;durP2;ratioP2;P2;SDS_P1;SDS_P2;PMS_P1;PMS_P2;Temp;Humidity;BMP_temperature;BMP_pressure;BME280_temperature;BME280_humidity;BME280_pressure;Samples;Min_cycle;Max_cycle;Signal;HPM_P1;HPM_P2
2024/04/14 00:00:55;;;;;;;11.20;8.07;;;;;;;18.14;78.62;101984.38;5380754;26;20004;-73
2024/04/14 00:03:24;;;;;;;11.43;7.85;;;;;;;18.11;78.38;101979.50;5383912;26;20001;-73
2024/04/14 00:05:51;;;;;;;12.95;8.55;;;;;;;18.11;78.12;101984.22;5384130;26;20015;-74
2024/04/14 00:08:19;;;;;;;13.68;8.48;;;;;;;18.07;78.41;101972.22;5353080;26;20045;-72
2024/04/14 00:10:46;;;;;;;14.18;7.85;;;;;;;18.02;77.90;101968.47;5384382;26;20054;-72
2024/04/14 00:13:17;;;;;;;12.48;8.63;;;;;;;17.99;78.29;101968.28;5383681;26;20465;-73
2024/04/14 00:15:44;;;;;;;14.32;8.75;;;;;;;17.94;78.29;101974.72;5353284;26;20015;-73
2024/04/14 00:18:11;;;;;;;12.77;8.20;;;;;;;17.91;78.60;101963.56;5383825;26;20054;-73
2024/04/14 00:20:39;;;;;;;15.02;8.40;;;;;;;17.87;78.73;101970.78;5399379;26;20019;-72
2024/04/14 00:23:07;;;;;;;14.95;8.48;;;;;;;17.83;79.12;101961.56;5419334;26;20000;-71
2024/04/14 00:25:34;;;;;;;10.95;8.05;;;;;;;17.81;79.07;101973.69;5418372;26;20099;-72
2024/04/14 00:28:02;;;;;;;10.70;7.45;;;;;;;17.78;79.01;101966.06;5419088;26;20054;-71
2024/04/14 00:30:30;;;;;;;11.45;8.05;;;;;;;17.77;79.19;101955.38;5388169;26;20464;-71
2024/04/14 00:33:00;;;;;;;13.40;7.80;;;;;;;17.76;79.04;101950.97;5419143;26;20003;-72
2024/04/14 00:35:28;;;;;;;12.43;8.10;;;;;;;17.76;79.08;101946.31;5418878;26;20032;-71
2024/04/14 00:37:56;;;;;;;12.55;8.00;;;;;;;17.76;78.57;101946.31;5418607;26;20015;-69
2024/04/14 00:40:23;;;;;;;12.52;8.05;;;;;;;17.77;78.24;101945.19;5419068;26;20349;-69
2024/04/14 00:42:57;;;;;;;16.80;9.13;;;;;;;17.83;78.06;101953.31;5419060;26;20000;-73
2024/04/14 00:45:26;;;;;;;11.63;8.90;;;;;;;17.85;77.46;101938.13;5419105;26;20007;-71
2024/04/14 00:47:54;;;;;;;15.88;9.50;;;;;;;17.81;77.12;101945.38;5418925;26;20042;-70
2024/04/14 00:50:23;;;;;;;13.43;8.57;;;;;;;17.79;77.17;101936.63;5419012;26;20438;-71
2024/04/14 00:52:51;;;;;;;14.20;7.93;;;;;;;17.75;77.30;101938.34;5387387;26;20000;-72
2024/04/14 00:55:19;;;;;;;15.13;8.38;;;;;;;17.70;77.59;101936.56;5418800;26;20003;-69
2024/04/14 00:57:48;;;;;;;14.35;8.98;;;;;;;17.68;77.81;101947.03;5418982;26;20027;-71
2024/04/14 01:00:16;;;;;;;13.82;9.43;;;;;;;17.64;78.25;101939.75;5418788;26;20375;-71
2024/04/14 01:02:45;;;;;;;15.93;9.43;;;;;;;17.61;78.90;101938.44;5418905;26;19999;-70
2024/04/14 01:05:12;;;;;;;13.10;8.75;;;;;;;17.56;79.23;101936.59;5418360;26;20000;-70
2024/04/14 01:07:39;;;;;;;17.70;8.30;;;;;;;17.52;79.50;101935.63;5418469;26;20003;-70
2024/04/14 01:10:08;;;;;;;13.05;8.30;;;;;;;17.48;79.86;101928.31;5418586;26;19999;-70
2024/04/14 01:12:35;;;;;;;18.20;8.88;;;;;;;17.43;80.25;101934.75;5385405;26;20078;-71
2024/04/14 01:15:03;;;;;;;18.83;9.57;;;;;;;17.37;80.86;101938.72;5418453;26;20004;-70
2024/04/14 01:17:32;;;;;;;16.50;10.02;;;;;;;17.37;81.78;101933.22;5418191;26;20014;-68
2024/04/14 01:20:00;;;;;;;15.45;9.13;;;;;;;17.31;82.12;101927.06;5418380;26;20012;-72
2024/04/14 01:22:27;;;;;;;18.65;8.82;;;;;;;17.31;82.28;101924.31;5418207;26;20009;-69
2024/04/14 01:25:06;;;;;;;15.60;9.02;;;;;;;17.29;82.23;101917.50;5418475;26;20015;-69
2024/04/14 01:27:34;;;;;;;13.70;9.07;;;;;;;17.29;82.33;101915.56;5418105;26;20031;-72
2024/04/14 01:30:05;;;;;;;15.90;8.73;;;;;;;17.28;82.05;101913.16;5418563;26;20357;-71
2024/04/14 01:32:38;;;;;;;12.15;8.25;;;;;;;17.24;82.04;101912.13;5418425;26;19999;-70
2024/04/14 01:35:09;;;;;;;14.98;9.65;;;;;;;17.20;81.93;101916.63;5418421;26;20031;-72
2024/04/14 01:37:37;;;;;;;13.90;9.02;;;;;;;17.16;82.10;101918.38;5418283;26;20007;-71
2024/04/14 01:40:05;;;;;;;14.63;9.25;;;;;;;17.10;82.04;101918.47;5429391;21;20300;-67
2024/04/14 01:42:33;;;;;;;14.15;8.35;;;;;;;17.08;82.16;101925.44;5380602;26;20010;-69
2024/04/14 01:45:00;;;;;;;14.57;8.80;;;;;;;17.02;82.22;101919.22;5382422;26;20000;-67
2024/04/14 01:47:28;;;;;;;14.88;9.98;;;;;;;16.99;82.81;101928.09;5382960;26;20015;-66
2024/04/14 01:49:55;;;;;;;17.20;9.57;;;;;;;16.99;83.28;101922.59;5351571;26;20040;-66
2024/04/14 01:52:23;;;;;;;15.77;10.20;;;;;;;16.93;84.29;101931.25;5382554;26;20012;-67
2024/04/14 01:54:53;;;;;;;21.20;12.52;;;;;;;16.91;86.93;101937.03;5382386;26;20081;-67
2024/04/14 01:57:20;;;;;;;17.98;11.52;;;;;;;16.84;88.77;101931.16;5382117;26;20011;-66
2024/04/14 01:59:48;;;;;;;22.48;11.93;;;;;;;16.77;91.73;101934.34;5382341;26;20011;-67
2024/04/14 02:02:16;;;;;;;26.33;14.38;;;;;;;16.70;93.13;101944.09;5382500;26;20016;-66
2024/04/14 02:04:44;;;;;;;22.10;15.07;;;;;;;16.65;95.38;101945.81;5351341;26;20356;-66
2024/04/14 02:07:12;;;;;;;23.77;14.43;;;;;;;16.58;97.14;101944.59;5382437;26;20008;-66
2024/04/14 02:09:39;;;;;;;25.25;15.25;;;;;;;16.42;99.09;101939.44;5381936;26;20059;-67
2024/04/14 02:12:07;;;;;;;23.35;14.18;;;;;;;16.34;100.00;101945.63;5382022;26;20370;-67
2024/04/14 02:14:35;;;;;;;26.17;14.02;;;;;;;16.33;100.00;101937.72;5381759;26;20020;-66
2024/04/14 02:17:02;;;;;;;21.95;13.38;;;;;;;16.32;100.00;101936.91;5381622;26;20412;-67
2024/04/14 02:19:30;;;;;;;19.38;9.30;;;;;;;16.32;97.78;101936.06;5381809;26;20018;-66
2024/04/14 02:21:57;;;;;;;14.73;9.60;;;;;;;16.37;97.37;101938.72;5382096;26;20016;-66
2024/04/14 02:24:29;;;;;;;13.88;8.50;;;;;;;16.40;94.86;101938.91;5381219;26;20469;-66
2024/04/14 02:26:56;;;;;;;14.15;8.75;;;;;;;16.46;94.17;101950.59;5381973;26;20000;-66
2024/04/14 02:29:24;;;;;;;12.60;8.27;;;;;;;16.48;92.95;101948.34;5381925;26;20008;-67
2024/04/14 02:31:52;;;;;;;10.60;7.70;;;;;;;16.49;92.18;101944.50;5381796;26;20400;-67
2024/04/14 02:34:20;;;;;;;10.77;7.80;;;;;;;16.50;90.97;101948.88;5382143;26;20015;-68
2024/04/14 02:36:47;;;;;;;12.38;8.10;;;;;;;16.51;89.42;101953.22;5381637;26;20000;-68
2024/04/14 02:39:15;;;;;;;12.13;7.85;;;;;;;16.49;88.68;101952.75;5350896;26;20086;-67
2024/04/14 02:41:42;;;;;;;11.23;7.28;;;;;;;16.52;87.45;101951.28;5350728;26;20012;-68
2024/04/14 02:44:10;;;;;;;11.63;7.53;;;;;;;16.53;87.13;101948.25;5381936;26;20416;-67
2024/04/14 02:46:37;;;;;;;10.60;8.35;;;;;;;16.51;85.86;101950.50;5381256;26;20019;-67
2024/04/14 02:49:05;;;;;;;14.68;8.32;;;;;;;16.53;84.77;101950.19;5381700;26;20004;-68
2024/04/14 02:51:32;;;;;;;20.70;12.00;;;;;;;16.67;91.02;101955.69;5350646;26;20450;-68
2024/04/14 02:54:00;;;;;;;18.00;10.85;;;;;;;16.54;92.12;101951.81;5381450;26;20011;-69
2024/04/14 02:56:28;;;;;;;21.27;13.48;;;;;;;16.49;95.25;101952.75;5383278;26;20020;-70
2024/04/14 02:58:55;;;;;;;23.88;16.05;;;;;;;16.36;98.78;101945.31;5383982;26;20478;-66
2024/04/14 03:01:23;;;;;;;28.20;17.52;;;;;;;16.24;100.00;101942.28;5385840;26;20008;-68
2024/04/14 03:03:51;;;;;;;30.60;17.73;;;;;;;16.08;100.00;101945.28;5384952;26;20028;-68
2024/04/14 03:06:18;;;;;;;27.38;17.45;;;;;;;15.99;100.00;101938.91;5381819;26;20004;-67
2024/04/14 03:08:46;;;;;;;24.65;17.00;;;;;;;15.88;100.00;101941.00;5381313;26;20012;-66
2024/04/14 03:11:13;;;;;;;21.92;14.10;;;;;;;15.79;100.00;101936.50;5381707;26;20011;-69
2024/04/14 03:13:41;;;;;;;18.58;10.98;;;;;;;15.81;100.00;101942.50;5381212;26;20068;-66
2024/04/14 03:16:09;;;;;;;17.52;9.82;;;;;;;15.82;100.00;101942.19;5381265;26;20008;-67
2024/04/14 03:18:36;;;;;;;16.15;10.50;;;;;;;15.87;99.30;101938.56;5380925;26;20008;-65
2024/04/14 03:21:04;;;;;;;17.65;10.95;;;;;;;15.91;98.34;101945.06;5381358;26;20051;-66
2024/04/14 03:23:32;;;;;;;17.17;10.68;;;;;;;15.97;97.60;101948.53;5350680;26;20462;-66
2024/04/14 03:26:01;;;;;;;14.88;10.43;;;;;;;16.01;96.03;101942.13;5381032;26;20058;-66
2024/04/14 03:28:28;;;;;;;19.35;10.93;;;;;;;15.98;94.52;101942.75;5381267;26;20004;-67
2024/04/14 03:31:00;;;;;;;13.20;9.50;;;;;;;15.98;93.98;101944.66;5381365;26;20010;-67
2024/04/14 03:33:29;;;;;;;14.45;8.27;;;;;;;16.02;92.54;101956.66;5380814;26;20458;-67
2024/04/14 03:36:05;;;;;;;13.73;9.15;;;;;;;16.08;91.50;101964.50;5381023;26;20014;-67
2024/04/14 03:38:33;;;;;;;18.95;10.50;;;;;;;16.12;91.36;101957.31;5384347;26;20004;-68
2024/04/14 03:41:01;;;;;;;15.55;10.57;;;;;;;16.19;92.01;101965.13;5384035;26;20015;-67
2024/04/14 03:43:29;;;;;;;17.08;10.13;;;;;;;16.36;93.04;101965.34;5384258;26;20000;-67
2024/04/14 03:45:57;;;;;;;12.50;9.60;;;;;;;16.44;93.59;101977.53;5384200;26;20082;-66
2024/04/14 03:48:24;;;;;;;18.65;10.55;;;;;;;16.53;94.11;101983.94;5383704;26;20012;-67
2024/04/14 03:50:52;;;;;;;16.95;10.05;;;;;;;16.58;94.80;101983.84;5392714;26;20000;-66
2024/04/14 03:53:20;;;;;;;15.32;10.93;;;;;;;16.67;97.61;101972.94;5419543;26;20069;-68
2024/04/14 03:55:48;;;;;;;15.02;10.73;;;;;;;16.65;99.08;101975.22;5419440;26;20442;-67
2024/04/14 03:58:15;;;;;;;16.65;11.48;;;;;;;16.57;99.83;101973.97;5419383;26;20000;-68
2024/04/14 04:00:44;;;;;;;18.67;11.00;;;;;;;16.53;100.00;101975.72;5419210;26;20003;-66
2024/04/14 04:03:11;;;;;;;17.75;12.77;;;;;;;16.51;100.00;101977.94;5388665;26;19999;-66
2024/04/14 04:05:39;;;;;;;16.98;11.93;;;;;;;16.48;100.00;101978.53;5419296;26;20012;-66
2024/04/14 04:08:07;;;;;;;17.33;11.43;;;;;;;16.58;99.41;101977.53;5419612;26;20036;-67
2024/04/14 04:10:34;;;;;;;16.33;11.85;;;;;;;16.62;97.32;101976.63;5419303;26;20032;-66
2024/04/14 04:13:02;;;;;;;16.48;11.20;;;;;;;16.64;97.19;101976.31;5418929;26;20022;-66
2024/04/14 04:15:29;;;;;;;18.73;11.38;;;;;;;16.62;96.97;101973.06;5418826;26;20010;-67
2024/04/14 04:17:57;;;;;;;16.80;10.75;;;;;;;16.59;96.95;101968.19;5388307;26;20076;-66
2024/04/14 04:20:24;;;;;;;16.63;11.50;;;;;;;16.63;98.33;101971.94;5419252;26;20050;-66
2024/04/14 04:22:52;;;;;;;14.32;11.43;;;;;;;16.60;98.75;101961.56;5419282;26;20039;-67
2024/04/14 04:25:20;;;;;;;17.63;11.55;;;;;;;16.55;98.88;101961.66;5418955;26;20010;-67
2024/04/14 04:27:47;;;;;;;16.02;10.93;;;;;;;16.51;98.92;101964.22;5419093;26;20010;-66
2024/04/14 04:30:16;;;;;;;18.58;11.30;;;;;;;16.55;98.63;101962.50;5419309;26;20002;-67
2024/04/14 04:32:44;;;;;;;17.70;11.27;;;;;;;16.56;96.67;101969.63;5418940;26;20468;-66
2024/04/14 04:35:11;;;;;;;17.27;11.95;;;;;;;16.57;95.80;101959.44;5418910;26;20022;-67
2024/04/14 04:37:39;;;;;;;17.00;11.55;;;;;;;16.60;95.78;101969.81;5418813;26;20343;-68
2024/04/14 04:40:07;;;;;;;14.32;10.52;;;;;;;16.62;95.34;101962.91;5419439;26;20003;-67
2024/04/14 04:42:34;;;;;;;15.20;11.45;;;;;;;16.67;95.21;101966.66;5418649;26;20000;-69
2024/04/14 04:45:02;;;;;;;15.45;11.02;;;;;;;16.74;94.63;101964.31;5418604;26;20004;-68
2024/04/14 04:47:29;;;;;;;16.70;11.32;;;;;;;16.81;93.34;101973.81;5418243;26;20011;-67
2024/04/14 04:49:57;;;;;;;19.83;11.98;;;;;;;16.91;91.95;101978.22;5418758;26;20323;-67
2024/04/14 04:52:24;;;;;;;19.17;11.73;;;;;;;17.02;91.06;101981.59;5419147;26;20010;-67
2024/04/14 04:54:52;;;;;;;16.77;10.75;;;;;;;17.16;90.38;101993.34;5418981;26;19999;-67
2024/04/14 04:57:20;;;;;;;14.93;11.13;;;;;;;17.34;89.65;101995.16;5418902;26;20004;-66
2024/04/14 04:59:47;;;;;;;17.60;11.48;;;;;;;17.55;88.55;102005.66;5418694;26;20010;-68
2024/04/14 05:02:14;;;;;;;17.50;12.00;;;;;;;17.65;87.84;102008.16;5418819;26;20032;-69
2024/04/14 05:04:42;;;;;;;17.55;11.98;;;;;;;17.77;87.47;102013.13;5418706;26;20012;-67
2024/04/14 05:07:09;;;;;;;17.48;12.70;;;;;;;17.99;87.11;102004.03;5418542;26;20083;-67
2024/04/14 05:09:37;;;;;;;14.77;11.07;;;;;;;18.10;85.95;102004.56;5387339;26;19999;-67
2024/04/14 05:12:04;;;;;;;19.80;12.02;;;;;;;18.26;84.28;101998.38;5418464;26;20446;-67
2024/04/14 05:14:32;;;;;;;14.15;11.23;;;;;;;18.49;83.73;102010.13;5418541;26;20446;-67
2024/04/14 05:16:59;;;;;;;21.83;15.75;;;;;;;18.83;82.97;102011.41;5418022;26;20024;-67
2024/04/14 05:19:27;;;;;;;25.83;18.08;;;;;;;19.15;81.36;102004.66;5358472;26;20015;-67
2024/04/14 05:21:54;;;;;;;21.65;15.88;;;;;;;19.51;79.51;102003.53;5418114;26;20004;-68
2024/04/14 05:24:22;;;;;;;22.80;14.63;;;;;;;19.79;77.06;102000.47;5418238;26;20012;-67
2024/04/14 05:26:49;;;;;;;19.83;13.85;;;;;;;19.97;73.78;101995.72;5416586;26;19999;-67
2024/04/14 05:29:17;;;;;;;23.40;14.40;;;;;;;20.34;73.86;102007.94;5408894;26;20010;-68
2024/04/14 05:31:44;;;;;;;21.95;14.70;;;;;;;20.75;71.49;102015.56;5392411;26;20004;-67
2024/04/14 05:34:14;;;;;;;18.25;13.07;;;;;;;21.13;68.61;102022.19;5415561;26;20396;-67
2024/04/14 05:36:43;;;;;;;18.10;11.52;;;;;;;21.52;66.90;102023.72;5418064;26;20018;-66
2024/04/14 05:39:11;;;;;;;17.27;11.55;;;;;;;21.90;66.50;102023.50;5413974;26;20053;-66
2024/04/14 05:41:38;;;;;;;15.18;10.05;;;;;;;22.32;65.27;102030.91;5409809;26;20008;-67
2024/04/14 05:44:06;;;;;;;18.80;11.02;;;;;;;22.76;62.49;102022.84;5398144;26;20494;-67
2024/04/14 05:46:33;;;;;;;13.02;10.32;;;;;;;22.98;60.46;102030.72;5399588;26;20044;-66
2024/04/14 05:49:01;;;;;;;17.33;11.07;;;;;;;23.30;58.73;102039.22;5382606;26;20031;-66
2024/04/14 05:51:46;;;;;;;19.02;10.70;;;;;;;23.51;57.26;102027.94;5411946;26;20031;-66
2024/04/14 05:54:13;;;;;;;16.05;10.18;;;;;;;23.70;55.80;102025.34;5410023;26;20018;-66
2024/04/14 05:56:41;;;;;;;17.88;10.82;;;;;;;23.90;55.35;102031.84;5417562;26;20514;-68
2024/04/14 05:59:09;;;;;;;17.25;10.68;;;;;;;24.40;54.17;102033.16;5416658;26;20009;-68
2024/04/14 06:01:37;;;;;;;15.93;10.15;;;;;;;25.00;52.96;102033.81;5417633;26;20010;-66
2024/04/14 06:04:05;;;;;;;14.25;9.65;;;;;;;25.38;51.33;102032.31;5417573;26;20004;-67
2024/04/14 06:06:32;;;;;;;15.65;9.60;;;;;;;25.74;50.56;102039.41;5417357;26;20000;-66
2024/04/14 06:09:00;;;;;;;14.40;9.40;;;;;;;26.02;49.15;102043.13;5417549;26;20331;-68
2024/04/14 06:11:28;;;;;;;16.27;10.85;;;;;;;26.09;49.18;102041.28;5417213;26;20028;-66
2024/04/14 06:13:55;;;;;;;17.90;10.65;;;;;;;26.24;48.84;102045.16;5417091;26;20010;-69
2024/04/14 06:16:23;;;;;;;17.77;10.48;;;;;;;25.62;50.29;102044.31;5417611;26;20445;-67
2024/04/14 06:18:50;;;;;;;16.10;10.27;;;;;;;26.01;50.55;102052.69;5416947;26;20008;-67
2024/04/14 06:21:18;;;;;;;16.35;11.10;;;;;;;25.60;51.39;102055.00;5417406;26;20015;-66
2024/04/14 06:23:45;;;;;;;19.92;11.23;;;;;;;25.04;52.65;102058.94;5416971;26;20382;-68
2024/04/14 06:26:13;;;;;;;16.55;10.77;;;;;;;25.59;51.92;102056.19;5416858;26;20011;-68
2024/04/14 06:28:40;;;;;;;17.77;11.88;;;;;;;25.41;52.98;102061.41;5417348;26;20011;-69
2024/04/14 06:31:08;;;;;;;23.50;12.80;;;;;;;25.31;52.42;102067.53;5417809;26;20011;-67
2024/04/14 06:33:35;;;;;;;14.85;10.48;;;;;;;25.85;50.93;102073.06;5387284;26;20024;-70
2024/04/14 06:36:05;;;;;;;14.63;10.70;;;;;;;26.14;49.55;102070.84;5386422;26;20047;-68
2024/04/14 06:38:32;;;;;;;22.92;11.27;;;;;;;25.69;50.54;102077.88;5386466;26;20418;-69
2024/04/14 06:40:59;;;;;;;15.73;10.20;;;;;;;26.00;48.92;102070.56;5419883;26;20003;-67
2024/04/14 06:43:27;;;;;;;14.90;9.30;;;;;;;26.59;47.49;102074.84;5421082;26;20066;-68
2024/04/14 06:45:54;;;;;;;13.25;9.13;;;;;;;26.79;45.54;102079.16;5418945;26;20417;-67
2024/04/14 06:48:22;;;;;;;16.05;9.00;;;;;;;27.35;43.90;102081.22;5417204;26;20000;-68
2024/04/14 06:50:49;;;;;;;11.77;8.18;;;;;;;27.93;41.93;102081.94;5416891;26;20010;-67
2024/04/14 06:53:20;;;;;;;10.82;7.70;;;;;;;28.20;40.55;102080.66;5356342;26;20065;-67
2024/04/14 06:55:50;;;;;;;11.73;8.02;;;;;;;28.23;40.03;102082.69;5385749;26;20057;-68
2024/04/14 06:58:18;;;;;;;12.43;8.82;;;;;;;28.10;39.61;102078.56;5411979;26;20551;-67
2024/04/14 07:00:46;;;;;;;11.07;7.20;;;;;;;28.53;39.45;102084.59;5408152;26;20011;-68
2024/04/14 07:03:14;;;;;;;14.98;8.23;;;;;;;28.83;38.09;102092.00;5416183;26;20000;-67
2024/04/14 07:05:42;;;;;;;10.93;6.97;;;;;;;28.54;38.61;102097.38;5415570;26;20035;-69
2024/04/14 07:08:09;;;;;;;9.77;6.10;;;;;;;28.72;37.16;102101.09;5416154;26;20000;-67
2024/04/14 07:10:38;;;;;;;9.07;6.32;;;;;;;28.57;37.14;102091.00;5416038;26;20421;-69
2024/04/14 07:13:05;;;;;;;10.75;6.53;;;;;;;28.09;37.48;102098.47;5384987;26;20000;-68
2024/04/14 07:15:33;;;;;;;10.88;6.57;;;;;;;27.67;37.78;102097.56;5415771;26;20630;-68
2024/04/14 07:18:00;;;;;;;8.45;5.70;;;;;;;27.74;37.73;102094.06;5416569;26;20003;-72
2024/04/14 07:20:29;;;;;;;14.00;6.43;;;;;;;27.26;37.78;102105.81;5416168;26;20071;-72
2024/04/14 07:22:56;;;;;;;12.68;7.00;;;;;;;27.14;38.60;102108.81;5415998;26;19999;-73
2024/04/14 07:25:23;;;;;;;11.57;7.05;;;;;;;27.18;38.48;102106.06;5416244;26;20510;-72
2024/04/14 07:27:51;;;;;;;11.18;5.88;;;;;;;27.03;37.52;102108.63;5416496;26;20004;-69
2024/04/14 07:30:20;;;;;;;14.18;6.57;;;;;;;26.94;38.38;102101.69;5415201;26;20045;-73
2024/04/14 07:32:47;;;;;;;9.75;6.55;;;;;;;27.01;38.21;102102.59;5384670;26;20000;-68
2024/04/14 07:35:16;;;;;;;13.25;6.68;;;;;;;27.02;37.55;102101.44;5415753;26;20468;-72
2024/04/14 07:37:43;;;;;;;8.15;5.70;;;;;;;26.47;38.97;102112.03;5384674;26;20014;-76
2024/04/14 07:40:11;;;;;;;14.85;5.78;;;;;;;26.57;38.74;102105.06;5428300;21;20011;-69
2024/04/14 07:42:38;;;;;;;12.10;5.68;;;;;;;26.72;38.37;102106.09;5415399;26;20080;-67
2024/04/14 07:45:07;;;;;;;10.40;6.07;;;;;;;26.60;37.61;102102.34;5415833;26;20007;-68
2024/04/14 07:47:34;;;;;;;10.98;5.57;;;;;;;26.48;38.39;102110.09;5415967;26;20027;-69
2024/04/14 07:50:02;;;;;;;8.80;5.85;;;;;;;26.48;38.13;102099.72;5415637;26;20004;-69
2024/04/14 07:52:31;;;;;;;11.20;5.88;;;;;;;25.87;39.09;102095.78;5415853;26;20009;-67
2024/04/14 07:54:58;;;;;;;11.15;6.18;;;;;;;26.11;39.05;102097.44;5415699;26;20010;-68
2024/04/14 07:57:27;;;;;;;11.18;5.97;;;;;;;25.91;40.18;102093.88;5415940;26;20000;-69
2024/04/14 07:59:54;;;;;;;10.48;6.53;;;;;;;25.71;39.85;102092.25;5415798;26;20008;-68
2024/04/14 08:02:25;;;;;;;16.42;6.10;;;;;;;25.24;40.50;102098.78;5417764;26;20015;-69
2024/04/14 08:04:54;;;;;;;9.55;6.28;;;;;;;24.90;41.79;102090.00;5423371;26;20413;-69
2024/04/14 08:07:21;;;;;;;8.95;6.20;;;;;;;24.62;42.86;102092.09;5447692;26;20333;-68
2024/04/14 08:09:49;;;;;;;10.40;6.57;;;;;;;24.43;43.05;102110.28;5436885;26;20369;-73
2024/04/14 08:12:17;;;;;;;7.90;5.72;;;;;;;24.33;42.19;102113.53;5413460;26;20021;-74
2024/04/14 08:14:44;;;;;;;10.32;6.43;;;;;;;24.25;43.31;102117.28;5435317;26;20011;-73
2024/04/14 08:17:12;;;;;;;9.30;5.90;;;;;;;24.19;42.51;102113.16;5451813;26;20003;-70
2024/04/14 08:19:39;;;;;;;10.50;5.82;;;;;;;24.06;43.09;102116.00;5451246;26;20003;-70
2024/04/14 08:22:07;;;;;;;12.13;6.30;;;;;;;23.80;43.67;102118.41;5452433;26;20017;-73
2024/04/14 08:24:34;;;;;;;10.55;5.95;;;;;;;23.83;43.88;102117.72;5454441;26;20002;-68
2024/04/14 08:27:02;;;;;;;8.88;6.35;;;;;;;23.90;43.53;102117.91;5454728;26;20003;-71
2024/04/14 08:29:30;;;;;;;14.52;6.28;;;;;;;23.67;43.58;102123.16;5423593;26;20003;-72
2024/04/14 08:31:59;;;;;;;13.02;6.28;;;;;;;23.50;44.50;102121.47;5454739;26;20344;-67
2024/04/14 08:34:26;;;;;;;9.82;6.30;;;;;;;23.48;44.85;102125.75;5454865;26;20011;-68
2024/04/14 08:36:54;;;;;;;9.95;6.30;;;;;;;23.62;45.29;102126.16;5454428;26;20034;-69
2024/04/14 08:39:21;;;;;;;9.75;6.35;;;;;;;23.75;44.23;102132.53;5454822;26;20003;-69
2024/04/14 08:41:50;;;;;;;12.07;6.70;;;;;;;23.85;44.06;102132.84;5454708;26;20034;-69
2024/04/14 08:44:17;;;;;;;10.48;6.28;;;;;;;23.76;43.54;102131.38;5454489;26;20076;-72
2024/04/14 08:46:49;;;;;;;12.32;6.28;;;;;;;23.51;43.79;102138.91;5395205;26;20027;-68
2024/04/14 08:49:21;;;;;;;8.23;6.00;;;;;;;23.25;44.65;102142.06;5454390;26;20010;-68
2024/04/14 08:51:51;;;;;;;10.52;5.82;;;;;;;23.31;45.32;102129.59;5454708;26;20441;-68
2024/04/14 08:54:19;;;;;;;10.85;5.82;;;;;;;23.48;44.56;102123.78;5454297;26;20014;-68
2024/04/14 08:56:54;;;;;;;11.55;6.07;;;;;;;23.45;44.92;102129.22;5454029;26;20079;-68
2024/04/14 08:59:22;;;;;;;9.52;6.07;;;;;;;23.52;45.18;102127.47;5448784;26;20010;-70
2024/04/14 09:01:54;;;;;;;12.25;6.00;;;;;;;23.50;44.14;102134.53;5418415;26;20010;-70
2024/04/14 09:04:22;;;;;;;9.05;5.88;;;;;;;23.31;44.57;102135.94;5418649;26;20079;-69
2024/04/14 09:06:50;;;;;;;12.05;6.25;;;;;;;23.18;44.62;102139.88;5447541;26;20006;-69
2024/04/14 09:09:21;;;;;;;8.35;5.72;;;;;;;23.17;45.03;102136.31;5454318;26;20010;-70
2024/04/14 09:11:52;;;;;;;9.82;6.30;;;;;;;23.03;45.11;102124.72;5454552;26;20003;-68
2024/04/14 09:14:22;;;;;;;10.50;6.30;;;;;;;22.88;44.99;102128.97;5423028;26;20002;-69
2024/04/14 09:16:51;;;;;;;11.43;6.47;;;;;;;22.77;45.19;102121.44;5454235;26;20461;-69
2024/04/14 09:19:18;;;;;;;10.80;6.43;;;;;;;22.73;45.96;102121.34;5453996;26;20031;-68
2024/04/14 09:21:46;;;;;;;8.68;5.93;;;;;;;22.83;45.87;102125.63;5454008;26;20286;-69
2024/04/14 09:24:14;;;;;;;8.73;6.20;;;;;;;22.83;45.71;102120.06;5454372;26;19999;-70
2024/04/14 09:26:43;;;;;;;10.13;6.65;;;;;;;22.79;46.30;102116.38;5453954;26;20007;-68
2024/04/14 09:29:11;;;;;;;14.38;6.70;;;;;;;22.78;46.23;102117.56;5454126;26;20003;-68
2024/04/14 09:31:38;;;;;;;12.32;6.53;;;;;;;22.81;46.76;102122.41;5453689;26;19999;-76
2024/04/14 09:34:07;;;;;;;8.35;6.40;;;;;;;22.81;46.61;102119.63;5389303;26;20757;-68
2024/04/14 09:36:35;;;;;;;7.82;5.82;;;;;;;22.79;46.86;102124.69;5417632;26;20064;-68
2024/04/14 09:39:05;;;;;;;11.82;6.60;;;;;;;22.69;46.86;102120.41;5417547;26;20334;-69
2024/04/14 09:41:35;;;;;;;8.75;6.28;;;;;;;22.66;48.06;102121.09;5417659;26;19999;-67
2024/04/14 09:44:04;;;;;;;11.77;6.22;;;;;;;22.62;48.02;102115.44;5386880;26;20010;-68
2024/04/14 09:46:32;;;;;;;9.38;6.50;;;;;;;22.72;48.48;102116.97;5417362;26;20029;-68
2024/04/14 09:49:01;;;;;;;10.02;6.45;;;;;;;22.79;48.33;102113.63;5417744;26;20003;-69
2024/04/14 09:51:29;;;;;;;11.07;6.18;;;;;;;22.85;48.60;102112.25;5417487;26;20075;-68
2024/04/14 09:53:58;;;;;;;10.75;6.35;;;;;;;22.80;48.38;102106.91;5417747;26;20402;-68
2024/04/14 09:56:26;;;;;;;11.15;6.25;;;;;;;22.77;48.17;102110.38;5417714;26;20410;-67
2024/04/14 09:58:54;;;;;;;10.05;6.43;;;;;;;22.77;48.93;102102.88;5417216;26;20506;-68
2024/04/14 10:01:27;;;;;;;9.68;6.20;;;;;;;22.68;50.08;102104.94;5386640;26;20031;-67
2024/04/14 10:03:59;;;;;;;11.48;7.05;;;;;;;22.68;51.21;102100.22;5417784;26;20015;-69
2024/04/14 10:06:29;;;;;;;17.15;6.72;;;;;;;22.67;50.64;102097.78;5417516;26;20402;-68
2024/04/14 10:08:57;;;;;;;10.52;6.18;;;;;;;22.66;50.37;102088.66;5417500;26;20027;-68
2024/04/14 10:11:24;;;;;;;11.63;6.47;;;;;;;22.64;50.81;102092.94;5416669;26;20053;-69
2024/04/14 10:13:54;;;;;;;10.07;6.60;;;;;;;22.64;50.73;102104.03;5417244;26;19999;-68
2024/04/14 10:16:24;;;;;;;12.10;6.18;;;;;;;22.57;51.29;102107.34;5417324;26;20083;-68
2024/04/14 10:18:52;;;;;;;11.45;6.50;;;;;;;22.65;51.31;102100.91;5418045;26;20039;-70
2024/04/14 10:21:21;;;;;;;9.90;6.85;;;;;;;22.86;50.75;102106.34;5418087;26;20008;-73
2024/04/14 10:23:56;;;;;;;11.77;6.72;;;;;;;22.89;50.59;102102.06;5418146;26;20004;-68
2024/04/14 10:26:24;;;;;;;9.52;6.68;;;;;;;23.03;51.64;102107.28;5417286;26;20014;-68
2024/04/14 10:28:55;;;;;;;10.18;6.45;;;;;;;23.01;50.26;102104.88;5417516;26;20345;-68
2024/04/14 10:31:33;;;;;;;12.38;6.65;;;;;;;23.04;51.23;102104.19;5442382;26;20043;-73
2024/04/14 10:34:05;;;;;;;7.60;6.22;;;;;;;23.16;49.81;102092.25;5453273;26;20094;-68
2024/04/14 10:36:34;;;;;;;11.67;6.97;;;;;;;23.15;50.81;102093.44;5452645;26;20370;-71
2024/04/14 10:39:04;;;;;;;11.85;7.43;;;;;;;23.20;51.08;102087.66;5452620;26;19999;-67
2024/04/14 10:41:32;;;;;;;11.23;6.80;;;;;;;23.11;51.96;102092.50;5394501;21;20029;-68
2024/04/14 10:43:59;;;;;;;10.68;6.40;;;;;;;23.16;52.11;102079.22;5340495;26;20013;-66
2024/04/14 10:46:27;;;;;;;9.32;6.38;;;;;;;23.14;52.28;102076.00;5325747;26;20012;-70
2024/04/14 10:48:55;;;;;;;12.02;7.00;;;;;;;23.15;52.50;102082.34;5344277;26;20026;-67
2024/04/14 10:51:23;;;;;;;11.57;7.55;;;;;;;23.18;53.50;102082.44;5345751;26;20023;-66
2024/04/14 10:53:53;;;;;;;13.07;7.40;;;;;;;23.39;53.48;102087.84;5343729;26;20082;-67
2024/04/14 10:56:21;;;;;;;11.48;6.72;;;;;;;23.22;52.65;102081.75;5345996;26;20020;-66
2024/04/14 10:58:48;;;;;;;10.82;6.75;;;;;;;23.12;52.95;102071.94;5346220;26;20474;-66
2024/04/14 11:01:16;;;;;;;15.32;7.10;;;;;;;23.00;53.51;102074.72;5345886;26;20005;-66
2024/04/14 11:03:44;;;;;;;10.68;6.88;;;;;;;22.83;54.34;102070.19;5345817;26;20001;-68
2024/04/14 11:06:12;;;;;;;11.57;7.55;;;;;;;22.87;54.67;102063.63;5345873;26;20016;-67
2024/04/14 11:08:40;;;;;;;11.13;7.53;;;;;;;22.92;55.38;102066.16;5346542;26;20336;-68
2024/04/14 11:11:09;;;;;;;12.55;7.63;;;;;;;22.85;55.79;102067.88;5346097;26;20013;-67
2024/04/14 11:13:37;;;;;;;12.68;7.32;;;;;;;22.85;54.78;102062.34;5346248;26;20001;-66
2024/04/14 11:16:06;;;;;;;13.18;7.40;;;;;;;22.76;55.38;102067.19;5346110;26;20459;-69
2024/04/14 11:18:35;;;;;;;11.20;7.25;;;;;;;22.68;56.13;102058.66;5345747;26;20001;-67